createdAt,value
2019-05-13T00:01:14.491Z,8.01
2019-05-13T00:03:44.083Z,8.08
2019-05-13T00:06:24.065Z,7.91
2019-05-13T00:08:54.329Z,7.88
2019-05-13T00:11:29.747Z,7.70
2019-05-13T00:14:18.401Z,7.54
2019-05-13T00:16:47.731Z,7.57
2019-05-13T00:19:17.041Z,7.77
2019-05-13T00:21:46.357Z,7.74
2019-05-13T00:24:15.690Z,7.68
2019-05-13T00:26:45.007Z,7.82
2019-05-13T00:29:14.515Z,8.15
2019-05-13T00:31:43.993Z,7.85
2019-05-13T00:34:14.373Z,7.78
2019-05-13T00:37:10.772Z,7.82
2019-05-13T00:39:39.560Z,7.53
2019-05-13T00:42:08.898Z,7.62
2019-05-13T00:44:38.220Z,7.53
2019-05-13T00:47:07.538Z,7.54
2019-05-13T00:49:37.221Z,7.49
2019-05-13T00:52:25.879Z,7.28
2019-05-13T00:54:55.258Z,7.47
2019-05-13T00:57:24.649Z,7.16
2019-05-13T00:59:54.183Z,7.64
2019-05-13T01:02:44.766Z,7.84
2019-05-13T01:05:24.633Z,7.85
2019-05-13T01:07:53.948Z,7.73
2019-05-13T01:10:23.778Z,7.54
2019-05-13T01:12:59.880Z,7.33
2019-05-13T01:15:29.248Z,7.41
2019-05-13T01:17:58.580Z,7.50
2019-05-13T01:20:27.894Z,7.68
2019-05-13T01:23:03.663Z,7.44
2019-05-13T01:25:39.034Z,7.31
2019-05-13T01:28:08.321Z,7.54
2019-05-13T01:30:37.651Z,7.67
2019-05-13T01:33:26.332Z,7.64
2019-05-13T01:35:55.661Z,7.64
2019-05-13T01:38:24.973Z,7.64
2019-05-13T01:40:54.564Z,7.68
2019-05-13T01:43:24.649Z,7.17
2019-05-13T01:46:14.084Z,7.01
2019-05-13T01:48:43.809Z,6.89
2019-05-13T01:51:33.558Z,6.72
2019-05-13T01:54:04.143Z,6.86
2019-05-13T01:56:53.657Z,6.72
2019-05-13T01:59:29.641Z,6.86
2019-05-13T02:04:39.190Z,6.62
2019-05-13T02:07:08.532Z,6.56
2019-05-13T02:09:37.855Z,6.64
2019-05-13T02:12:07.185Z,6.75
2019-05-13T02:14:36.497Z,6.91
2019-05-13T02:17:05.834Z,7.09
2019-05-13T02:19:35.169Z,6.81
2019-05-13T02:22:04.485Z,7.07
2019-05-13T02:24:34.342Z,6.83
2019-05-13T02:27:25.519Z,7.05
2019-05-13T02:30:16.099Z,7.05
2019-05-13T02:35:38.970Z,6.73
2019-05-13T02:38:19.850Z,6.56
2019-05-13T02:40:44.970Z,6.96
2019-05-13T02:43:14.365Z,6.73
2019-05-13T02:45:43.685Z,6.42
2019-05-13T02:48:13.012Z,6.38
2019-05-13T02:50:44.118Z,6.38
2019-05-13T02:53:18.700Z,6.29
2019-05-13T02:55:48.036Z,6.14
2019-05-13T02:58:17.387Z,6.23
2019-05-13T03:00:47.024Z,6.39
2019-05-13T03:03:16.354Z,6.31
2019-05-13T03:05:45.624Z,6.19
2019-05-13T03:08:33.632Z,6.58
2019-05-13T03:10:53.048Z,6.20
2019-05-13T03:13:27.621Z,6.58
2019-05-13T03:18:52.512Z,6.21
2019-05-13T03:21:28.314Z,6.58
2019-05-13T03:23:57.652Z,6.37
2019-05-13T03:26:27.336Z,6.35
2019-05-13T03:28:56.683Z,5.93
2019-05-13T03:31:26.960Z,6.19
2019-05-13T03:34:16.683Z,5.90
2019-05-13T03:40:16.851Z,5.90
2019-05-13T03:57:54.976Z,5.63
2019-05-13T04:00:24.329Z,6.01
2019-05-13T04:05:56.093Z,5.91
2019-05-13T04:08:25.489Z,5.78
2019-05-13T04:10:54.850Z,5.83
2019-05-13T04:13:24.229Z,5.83
2019-05-13T04:15:53.637Z,5.95
2019-05-13T04:18:23.784Z,5.83
2019-05-13T04:21:02.848Z,5.77
2019-05-13T04:23:42.636Z,5.82
2019-05-13T04:26:16.834Z,5.84
2019-05-13T04:28:46.311Z,6.09
2019-05-13T04:31:28.315Z,6.31
2019-05-13T04:33:57.666Z,6.56
2019-05-13T04:36:27.075Z,6.47
2019-05-13T04:41:58.604Z,6.36
2019-05-13T04:44:35.149Z,6.51
2019-05-13T04:53:07.745Z,6.48
2019-05-13T04:55:52.403Z,6.55
2019-05-13T04:58:23.107Z,6.42
2019-05-13T05:08:03.193Z,7.07
2019-05-13T05:11:32.211Z,7.13
2019-05-13T05:18:06.183Z,7.23
2019-05-13T05:27:17.749Z,7.64
2019-05-13T05:30:26.985Z,7.74
2019-05-13T05:33:34.893Z,7.84
2019-05-13T05:36:44.130Z,8.07
2019-05-13T05:39:32.826Z,7.94
2019-05-13T05:42:02.392Z,8.18
2019-05-13T05:45:18.818Z,8.25
2019-05-13T06:05:58.605Z,8.78
2019-05-13T06:08:27.934Z,8.93
2019-05-13T06:10:57.321Z,8.95
2019-05-13T06:13:26.637Z,8.96
2019-05-13T06:15:56.043Z,9.01
2019-05-13T06:18:25.362Z,9.23
2019-05-13T06:20:54.688Z,9.37
2019-05-13T06:23:35.296Z,9.33
2019-05-13T06:26:04.634Z,9.34
2019-05-13T06:28:34.201Z,9.40
2019-05-13T06:31:03.809Z,9.61
2019-05-13T06:33:33.679Z,9.42
2019-05-13T06:36:03.168Z,9.68
2019-05-13T06:38:32.802Z,9.81
2019-05-13T06:41:07.081Z,9.91
2019-05-13T06:43:33.138Z,9.80
2019-05-13T06:46:02.475Z,9.80
2019-05-13T06:48:32.293Z,9.92
2019-05-13T06:51:02.600Z,10.08
2019-05-13T06:53:32.248Z,9.96
2019-05-13T06:56:01.710Z,9.96
2019-05-13T06:58:32.480Z,10.23
2019-05-13T07:01:03.715Z,10.17
2019-05-13T07:03:33.113Z,10.32
2019-05-13T07:06:02.436Z,10.41
2019-05-13T07:08:31.775Z,10.46
2019-05-13T07:11:17.198Z,10.67
2019-05-13T07:13:32.411Z,10.79
2019-05-13T07:16:01.736Z,10.85
2019-05-13T07:18:32.370Z,11.01
2019-05-13T07:21:02.332Z,10.77
2019-05-13T07:23:32.055Z,11.06
2019-05-13T07:26:02.043Z,11.13
2019-05-13T07:28:32.451Z,11.20
2019-05-13T07:31:02.380Z,11.22
2019-05-13T07:33:32.258Z,11.46
2019-05-13T07:36:03.536Z,11.49
2019-05-13T07:38:33.221Z,11.28
2019-05-13T07:41:03.978Z,11.58
2019-05-13T07:43:33.756Z,11.64
2019-05-13T07:46:03.158Z,11.64
2019-05-13T07:48:32.595Z,11.60
2019-05-13T07:51:04.665Z,11.87
2019-05-13T07:53:32.921Z,11.98
2019-05-13T07:56:02.327Z,11.81
2019-05-13T07:58:37.232Z,11.91
2019-05-13T08:01:02.767Z,11.77
2019-05-13T08:03:32.032Z,12.06
2019-05-13T08:06:02.170Z,12.15
2019-05-13T08:08:32.374Z,12.33
2019-05-13T08:11:01.726Z,12.18
2019-05-13T08:13:31.579Z,12.31
2019-05-13T08:16:01.881Z,12.29
2019-05-13T08:18:32.032Z,12.28
2019-05-13T08:21:02.180Z,12.38
2019-05-13T08:23:32.521Z,12.41
2019-05-13T08:26:02.694Z,12.34
2019-05-13T08:28:32.539Z,12.54
2019-05-13T08:31:02.322Z,12.41
2019-05-13T08:33:32.306Z,12.29
2019-05-13T08:36:01.964Z,12.44
2019-05-13T08:38:32.068Z,12.48
2019-05-13T08:41:02.062Z,13.00
2019-05-13T08:43:31.897Z,12.88
2019-05-13T08:46:02.193Z,13.04
2019-05-13T08:48:32.361Z,13.40
2019-05-13T08:51:03.066Z,13.43
2019-05-13T08:53:32.878Z,13.28
2019-05-13T08:56:02.364Z,13.33
2019-05-13T08:58:32.266Z,13.38
2019-05-13T09:01:02.345Z,13.50
2019-05-13T09:03:32.891Z,13.46
2019-05-13T09:06:02.914Z,13.46
2019-05-13T09:08:32.401Z,13.56
2019-05-13T09:11:02.322Z,13.76
2019-05-13T09:13:33.042Z,14.02
2019-05-13T09:16:02.800Z,14.02
2019-05-13T09:18:32.491Z,13.97
2019-05-13T09:21:02.823Z,14.20
2019-05-13T09:23:33.834Z,14.27
2019-05-13T09:26:03.174Z,14.58
2019-05-13T09:28:32.729Z,15.01
2019-05-13T09:31:02.339Z,15.01
2019-05-13T09:33:32.707Z,15.44
2019-05-13T09:36:02.448Z,15.44
2019-05-13T09:38:32.723Z,14.68
2019-05-13T09:41:02.327Z,14.68
2019-05-13T09:43:31.856Z,15.13
2019-05-13T09:46:01.979Z,15.04
2019-05-13T09:48:32.126Z,14.98
2019-05-13T09:51:02.398Z,15.24
2019-05-13T09:53:32.754Z,15.16
2019-05-13T09:56:02.668Z,15.16
2019-05-13T09:58:33.028Z,15.45
2019-05-13T10:01:02.658Z,15.37
2019-05-13T10:03:33.106Z,15.37
2019-05-13T10:06:02.882Z,15.12
2019-05-13T10:08:32.761Z,15.12
2019-05-13T10:11:02.224Z,14.95
2019-05-13T10:13:32.046Z,15.19
2019-05-13T10:16:01.467Z,14.65
2019-05-13T10:18:32.647Z,14.65
2019-05-13T10:21:03.174Z,14.16
2019-05-13T10:23:33.501Z,14.79
2019-05-13T10:26:05.997Z,14.82
2019-05-13T10:28:35.779Z,14.82
2019-05-13T10:31:05.449Z,15.03
2019-05-13T10:33:34.976Z,15.03
2019-05-13T10:36:04.755Z,15.25
2019-05-13T10:38:34.092Z,15.78
2019-05-13T10:41:03.937Z,15.78
2019-05-13T10:43:39.066Z,15.67
2019-05-13T10:46:05.129Z,15.67
2019-05-13T10:48:34.456Z,15.52
2019-05-13T10:51:03.965Z,15.49
2019-05-13T10:53:33.286Z,15.25
2019-05-13T10:56:03.495Z,15.81
2019-05-13T10:58:33.002Z,15.81
2019-05-13T11:01:03.052Z,15.61
2019-05-13T11:03:33.164Z,15.61
2019-05-13T11:06:02.649Z,15.39
2019-05-13T11:08:33.124Z,15.30
2019-05-13T11:11:02.784Z,15.60
2019-05-13T11:13:49.613Z,15.58
2019-05-13T11:16:03.221Z,14.90
2019-05-13T11:18:34.194Z,14.90
2019-05-13T11:21:03.814Z,15.33
2019-05-13T11:23:33.143Z,15.69
2019-05-13T11:26:03.362Z,15.69
2019-05-13T11:28:33.065Z,15.33
2019-05-13T11:31:03.228Z,15.15
2019-05-13T11:33:33.071Z,15.29
2019-05-13T11:36:03.484Z,15.29
2019-05-13T11:38:33.168Z,15.64
2019-05-13T11:41:03.014Z,15.80
2019-05-13T11:43:33.202Z,15.78
2019-05-13T11:46:03.314Z,15.23
2019-05-13T11:48:32.768Z,15.01
2019-05-13T11:51:03.798Z,15.38
2019-05-13T11:53:34.478Z,15.38
2019-05-13T11:56:04.185Z,14.99
2019-05-13T11:58:33.531Z,15.37
2019-05-13T12:01:03.617Z,15.51
2019-05-13T12:03:33.087Z,15.25
2019-05-13T12:06:02.823Z,15.11
2019-05-13T12:08:34.091Z,15.11
2019-05-13T12:11:05.275Z,15.26
2019-05-13T12:13:34.723Z,15.26
2019-05-13T12:16:04.122Z,14.95
2019-05-13T12:18:33.454Z,15.48
2019-05-13T12:21:03.729Z,15.73
2019-05-13T12:23:33.651Z,15.73
2019-05-13T12:26:04.245Z,15.87
2019-05-13T12:28:34.037Z,15.55
2019-05-13T12:31:04.194Z,15.81
2019-05-13T12:33:52.861Z,16.01
2019-05-13T12:36:23.499Z,16.01
2019-05-13T12:39:14.396Z,16.25
2019-05-13T12:41:48.621Z,16.59
2019-05-13T12:44:17.946Z,15.71
2019-05-13T12:46:50.458Z,15.39
2019-05-13T12:49:47.081Z,15.60
2019-05-13T12:52:16.428Z,15.78
2019-05-13T12:55:05.311Z,15.71
2019-05-13T12:57:47.081Z,15.51
2019-05-13T13:03:36.617Z,15.92
2019-05-13T13:06:27.262Z,15.92
2019-05-13T13:08:54.815Z,16.34
2019-05-13T13:11:24.227Z,16.34
2019-05-13T13:14:15.469Z,15.75
2019-05-13T13:17:04.226Z,15.69
2019-05-13T13:19:54.864Z,16.15
2019-05-13T13:22:34.495Z,15.90
2019-05-13T13:25:52.401Z,15.90
2019-05-13T13:28:23.826Z,16.09
2019-05-13T13:30:56.092Z,16.13
2019-05-13T13:33:25.424Z,16.32
2019-05-13T13:35:59.715Z,15.65
2019-05-13T13:38:32.648Z,15.14
2019-05-13T13:41:07.735Z,15.00
2019-05-13T13:43:43.027Z,15.56
2019-05-13T13:46:41.258Z,15.89
2019-05-13T13:49:23.088Z,15.89
2019-05-13T13:51:57.997Z,16.59
2019-05-13T13:54:27.333Z,16.44
2019-05-13T13:56:56.836Z,16.72
2019-05-13T13:59:26.175Z,16.69
2019-05-13T14:01:55.647Z,16.29
2019-05-13T14:04:24.910Z,15.98
2019-05-13T14:09:44.351Z,15.92
2019-05-13T14:12:13.686Z,16.42
2019-05-13T14:14:43.001Z,16.54
2019-05-13T14:17:12.336Z,16.41
2019-05-13T14:19:42.267Z,16.06
2019-05-13T14:22:17.882Z,15.33
2019-05-13T14:24:47.397Z,15.49
2019-05-13T14:27:16.715Z,16.10
2019-05-13T14:29:49.152Z,16.27
2019-05-13T14:32:48.075Z,16.33
2019-05-13T14:35:17.404Z,16.33
2019-05-13T14:37:46.756Z,16.64
2019-05-13T14:40:55.982Z,17.31
2019-05-13T14:43:25.329Z,16.63
2019-05-13T14:45:54.799Z,16.42
2019-05-13T14:48:24.123Z,15.76
2019-05-13T14:50:53.455Z,15.25
2019-05-13T14:53:22.779Z,15.51
2019-05-13T14:55:52.114Z,16.04
2019-05-13T14:58:21.978Z,16.23
2019-05-13T15:01:11.209Z,16.31
2019-05-13T15:03:34.494Z,16.42
2019-05-13T15:06:11.992Z,16.54
2019-05-13T15:08:47.244Z,16.64
2019-05-13T15:11:16.582Z,16.95
2019-05-13T15:13:46.138Z,16.45
2019-05-13T15:16:15.537Z,16.74
2019-05-13T15:18:44.959Z,16.82
2019-05-13T15:21:14.350Z,16.73
2019-05-13T15:23:43.684Z,16.94
2019-05-13T15:26:12.996Z,16.92
2019-05-13T15:28:42.390Z,17.13
2019-05-13T15:31:12.081Z,17.41
2019-05-13T15:33:41.759Z,17.78
2019-05-13T15:36:17.958Z,17.15
2019-05-13T15:38:47.277Z,16.34
2019-05-13T15:41:16.604Z,16.88
2019-05-13T15:43:45.930Z,17.14
2019-05-13T15:46:22.150Z,16.87
2019-05-13T15:48:51.823Z,17.39
2019-05-13T15:51:22.108Z,17.17
2019-05-13T15:54:01.201Z,17.17
2019-05-13T15:56:34.015Z,17.23
2019-05-13T15:59:08.692Z,16.54
2019-05-13T16:01:55.427Z,15.85
2019-05-13T16:04:24.767Z,16.04
2019-05-13T16:06:54.179Z,17.37
2019-05-13T16:09:23.503Z,18.50
2019-05-13T16:11:52.838Z,18.44
2019-05-13T16:14:22.406Z,17.66
2019-05-13T16:16:51.738Z,17.50
2019-05-13T16:19:22.042Z,17.96
2019-05-13T16:22:11.978Z,20.08
2019-05-13T16:24:47.559Z,18.43
2019-05-13T16:27:16.901Z,16.97
2019-05-13T16:29:46.397Z,16.53
2019-05-13T16:32:15.737Z,16.83
2019-05-13T16:34:45.049Z,16.37
2019-05-13T16:37:14.391Z,15.90
2019-05-13T16:39:43.724Z,16.96
2019-05-13T16:42:13.042Z,17.47
2019-05-13T16:44:51.602Z,17.62
2019-05-13T16:47:26.131Z,16.68
2019-05-13T16:50:02.706Z,15.76
2019-05-13T16:52:37.983Z,15.15
2019-05-13T16:55:47.227Z,14.82
2019-05-13T16:58:16.552Z,14.75
2019-05-13T17:01:25.787Z,15.42
2019-05-13T17:03:55.178Z,15.71
2019-05-13T17:06:24.613Z,15.38
2019-05-13T17:08:54.032Z,14.81
2019-05-13T17:11:23.457Z,14.81
2019-05-13T17:14:12.134Z,14.81
2019-05-13T17:16:41.587Z,14.81
2019-05-13T17:19:12.130Z,14.61
2019-05-13T17:22:02.548Z,14.49
2019-05-13T17:24:53.982Z,14.49
2019-05-13T17:27:35.072Z,14.54
2019-05-13T17:30:44.323Z,14.54
2019-05-13T17:33:13.650Z,14.36
2019-05-13T17:35:42.974Z,14.41
2019-05-13T17:38:12.313Z,14.31
2019-05-13T17:40:42.142Z,14.24
2019-05-13T17:43:12.062Z,14.24
2019-05-13T17:45:41.789Z,14.38
2019-05-13T17:48:25.471Z,14.35
2019-05-13T17:50:42.383Z,14.07
2019-05-13T17:53:11.710Z,14.23
2019-05-13T17:55:41.051Z,14.16
2019-05-13T17:58:11.633Z,14.16
2019-05-13T18:00:41.573Z,14.18
2019-05-13T18:03:11.485Z,14.11
2019-05-13T18:05:42.088Z,13.99
2019-05-13T18:08:11.538Z,13.99
2019-05-13T18:10:42.004Z,13.97
2019-05-13T18:13:12.635Z,13.97
2019-05-13T18:15:42.112Z,13.95
2019-05-13T18:18:12.021Z,13.82
2019-05-13T18:20:41.620Z,13.74
2019-05-13T18:23:12.151Z,13.75
2019-05-13T18:25:42.165Z,13.75
2019-05-13T18:28:26.773Z,13.74
2019-05-13T18:30:42.595Z,13.70
2019-05-13T18:33:12.260Z,13.65
2019-05-13T18:35:41.942Z,13.53
2019-05-13T18:38:11.915Z,13.53
2019-05-13T18:40:41.944Z,13.44
2019-05-13T18:43:11.521Z,13.44
2019-05-13T18:45:42.022Z,13.35
2019-05-13T18:48:21.660Z,13.26
2019-05-13T18:50:52.133Z,13.18
2019-05-13T18:53:21.633Z,13.21
2019-05-13T18:55:52.455Z,13.16
2019-05-13T18:58:22.365Z,13.08
2019-05-13T19:00:52.235Z,13.04
2019-05-13T19:03:21.996Z,13.01
2019-05-13T19:05:51.309Z,12.97
2019-05-13T19:08:21.411Z,12.95
2019-05-13T19:10:52.231Z,12.88
2019-05-13T19:13:22.068Z,12.87
2019-05-13T19:15:51.840Z,12.76
2019-05-13T19:18:21.511Z,12.76
2019-05-13T19:20:51.319Z,12.78
2019-05-13T19:23:21.010Z,12.63
2019-05-13T19:25:51.329Z,12.55
2019-05-13T19:28:22.284Z,12.49
2019-05-13T19:30:51.884Z,12.48
2019-05-13T19:33:22.126Z,12.46
2019-05-13T19:35:52.429Z,12.35
2019-05-13T19:38:21.771Z,12.44
2019-05-13T19:40:51.103Z,12.30
2019-05-13T19:43:21.786Z,12.22
2019-05-13T19:45:51.875Z,12.18
2019-05-13T19:48:21.749Z,12.23
2019-05-13T19:50:52.095Z,12.16
2019-05-13T19:53:21.584Z,12.23
2019-05-13T19:55:52.012Z,12.17
2019-05-13T19:58:21.680Z,12.16
2019-05-13T20:00:51.643Z,12.06
2019-05-13T20:03:22.600Z,12.06
2019-05-13T20:05:52.317Z,11.89
2019-05-13T20:08:21.679Z,11.95
2019-05-13T20:10:52.936Z,11.87
2019-05-13T20:13:22.278Z,11.92
2019-05-13T20:15:51.927Z,11.86
2019-05-13T20:18:22.885Z,11.80
2019-05-13T20:20:52.239Z,11.83
2019-05-13T20:23:22.663Z,11.74
2019-05-13T20:25:52.376Z,11.69
2019-05-13T20:28:31.741Z,11.60
2019-05-13T20:31:01.832Z,11.52
2019-05-13T20:33:32.155Z,11.51
2019-05-13T20:36:01.796Z,11.50
2019-05-13T20:38:31.736Z,11.48
2019-05-13T20:41:01.548Z,11.42
2019-05-13T20:43:32.724Z,11.44
2019-05-13T20:46:02.317Z,11.40
2019-05-13T20:48:32.170Z,11.35
2019-05-13T20:51:02.527Z,11.29
2019-05-13T20:53:32.117Z,11.23
2019-05-13T20:56:01.905Z,11.13
2019-05-13T20:58:31.940Z,10.90
2019-05-13T21:01:02.416Z,10.84
2019-05-13T21:03:31.965Z,10.87
2019-05-13T21:06:01.289Z,10.84
2019-05-13T21:08:32.102Z,10.77
2019-05-13T21:11:02.401Z,10.74
2019-05-13T21:13:32.037Z,10.58
2019-05-13T21:16:02.332Z,10.50
2019-05-13T21:18:31.896Z,10.33
2019-05-13T21:21:01.247Z,10.50
2019-05-13T21:23:31.237Z,10.46
2019-05-13T21:26:01.733Z,9.98
2019-05-13T21:28:31.258Z,9.95
2019-05-13T21:31:02.158Z,9.89
2019-05-13T21:33:31.628Z,9.94
2019-05-13T21:36:01.792Z,9.82
2019-05-13T21:38:32.452Z,9.80
2019-05-13T21:41:01.950Z,9.88
2019-05-13T21:43:32.419Z,9.87
2019-05-13T21:46:02.294Z,9.93
2019-05-13T21:48:32.550Z,9.93
2019-05-13T21:51:02.137Z,10.02
2019-05-13T21:53:32.680Z,10.16
2019-05-13T21:56:02.477Z,10.16
2019-05-13T21:58:31.906Z,10.10
2019-05-13T22:01:02.551Z,10.03
2019-05-13T22:03:33.599Z,10.06
2019-05-13T22:06:02.961Z,10.01
2019-05-13T22:08:32.318Z,10.01
2019-05-13T22:11:01.956Z,9.96
2019-05-13T22:13:31.810Z,10.07
2019-05-13T22:16:01.718Z,9.98
2019-05-13T22:18:31.675Z,10.01
2019-05-13T22:21:01.505Z,10.02
2019-05-13T22:23:32.101Z,10.03
2019-05-13T22:26:02.016Z,10.09
2019-05-13T22:28:31.570Z,10.23
2019-05-13T22:31:01.515Z,10.06
2019-05-13T22:33:32.363Z,10.06
2019-05-13T22:36:02.064Z,10.05
2019-05-13T22:38:32.308Z,10.05
2019-05-13T22:41:01.962Z,9.95
2019-05-13T22:43:32.212Z,9.87
2019-05-13T22:46:02.027Z,9.92
2019-05-13T22:48:31.912Z,9.83
2019-05-13T22:51:01.657Z,9.80
2019-05-13T22:53:31.859Z,9.70
2019-05-13T22:56:01.454Z,9.57
2019-05-13T22:58:32.107Z,9.69
2019-05-13T23:01:02.501Z,9.45
2019-05-13T23:03:32.648Z,9.23
2019-05-13T23:06:01.959Z,9.15
2019-05-13T23:08:32.496Z,8.83
2019-05-13T23:11:02.264Z,8.73
2019-05-13T23:13:31.754Z,8.68
2019-05-13T23:16:02.384Z,8.52
2019-05-13T23:18:31.943Z,8.85
2019-05-13T23:21:02.303Z,8.35
2019-05-13T23:23:31.821Z,8.35
2019-05-13T23:26:01.144Z,8.33
2019-05-13T23:28:32.268Z,8.12
2019-05-13T23:31:01.848Z,8.38
2019-05-13T23:33:31.549Z,8.17
2019-05-13T23:36:01.537Z,8.11
2019-05-13T23:38:32.031Z,8.14
2019-05-13T23:41:07.286Z,7.90
2019-05-13T23:43:36.615Z,7.75
2019-05-13T23:46:05.936Z,7.83
2019-05-13T23:48:35.262Z,7.74
2019-05-13T23:51:04.576Z,7.63
2019-05-13T23:53:34.024Z,7.59
2019-05-13T23:56:03.350Z,7.50
2019-05-13T23:58:32.670Z,7.62
